EST,Max TemperatureF,Mean TemperatureF,Min TemperatureF,Max Dew PointF,MeanDew PointF,Min DewpointF,Max Humidity, Mean Humidity, Min Humidity, Max Sea Level PressureIn, Mean Sea Level PressureIn, Min Sea Level PressureIn, Max VisibilityMiles, Mean VisibilityMiles, Min VisibilityMiles, Max Wind SpeedMPH, Mean Wind SpeedMPH, Max Gust SpeedMPH,PrecipitationIn, CloudCover, Events, WindDirDegrees
2012-11-1,55,44,33,37,34,28,93,64,44,29.86,29.80,29.76,10,10,10,15,2,20,0.00,4,,295
2012-11-2,60,45,30,37,29,23,100,59,23,30.00,29.89,29.85,10,10,10,16,1,21,0.00,3,,300
2012-11-3,64,46,28,39,31,25,100,63,24,30.13,30.06,30.00,10,10,2,12,2,20,0.00,1,Rain,347
2012-11-4,57,50,42,45,40,34,100,75,48,30.10,30.05,29.99,10,10,10,10,1,,0.08,4,Rain,20
2012-11-5,57,42,28,34,29,21,100,65,25,30.13,30.08,30.03,10,10,4,10,3,,0.00,0,,351
2012-11-6,42,35,28,32,30,27,100,76,61,30.18,30.09,29.97,10,10,4,5,1,,0.00,3,,1
2012-11-7,55,44,33,36,31,27,93,64,33,29.97,29.92,29.85,10,10,10,8,1,,0.00,6,,27
2012-11-8,62,46,30,36,21,10,100,50,13,30.16,30.06,29.96,10,10,7,15,4,24,0.00,0,,326
2012-11-9,68,48,28,34,28,23,87,58,18,30.28,30.22,30.16,10,10,10,5,0,,0.00,0,,280
2012-11-10,77,54,30,37,30,12,100,60,9,30.38,30.31,30.26,10,10,10,5,0,,0.00,0,,183
2012-11-11,73,52,30,45,37,28,100,67,19,30.48,30.42,30.38,10,10,10,9,1,16,0.00,0,,191
2012-11-12,73,60,48,64,55,45,100,85,57,30.42,30.30,30.17,10,10,5,10,1,17,0.11,3,Rain,166
2012-11-13,55,42,30,52,34,27,100,67,33,30.45,30.34,30.20,10,10,7,20,8,29,0.22,4,Rain,341
2012-11-14,50,39,28,32,28,27,100,69,40,30.53,30.45,30.39,10,10,10,9,1,,0.00,1,,39
2012-11-15,48,39,30,36,30,28,100,71,50,30.40,30.33,30.28,10,10,10,7,1,,0.00,0,,21
2012-11-16,59,42,26,37,29,23,100,72,27,30.43,30.34,30.29,10,10,7,7,1,,0.00,0,,40
2012-11-17,57,42,26,30,24,18,100,56,21,30.54,30.50,30.44,10,10,10,10,2,18,0.00,0,,29
2012-11-18,57,50,42,39,35,27,66,56,48,30.53,30.48,30.43,10,10,10,13,5,22,0.00,7,,14
2012-11-19,57,47,37,43,40,37,100,71,58,30.43,30.33,30.23,10,10,10,8,4,,0.00,5,,13
2012-11-20,57,45,33,43,39,34,100,84,51,30.23,30.15,30.08,10,10,3,4,0,,0.00,0,,30
2012-11-21,64,46,28,43,32,25,100,71,24,30.21,30.16,30.13,10,10,7,8,1,,0.00,0,,28
2012-11-22,64,47,30,28,25,19,86,47,18,30.25,30.20,30.18,10,10,10,7,3,,0.00,0,,56
2012-11-23,69,48,26,43,31,27,100,60,25,30.18,30.02,29.89,10,10,10,15,2,20,0.00,1,,251
2012-11-24,46,36,24,28,19,12,74,44,27,30.13,30.04,29.95,10,10,7,21,10,29,0.00,0,,317
2012-11-25,53,35,17,21,18,14,93,56,22,30.15,30.08,29.99,10,10,10,9,2,16,0.00,0,,211
2012-11-26,66,46,26,32,25,18,80,52,18,30.20,30.14,30.07,10,10,10,7,1,,0.02,2,,184
2012-11-27,50,46,41,50,44,32,100,97,66,30.26,30.18,30.12,10,8,2,5,0,,0.17,8,Rain,80
2012-11-28,55,42,26,43,28,16,100,66,22,30.40,30.32,30.25,10,8,1,9,2,,0.00,2,,324
2012-11-29,55,38,21,28,24,19,100,70,26,30.48,30.41,30.36,10,10,10,8,1,,0.00,0,,214
2012-11-30,62,44,26,36,31,27,100,75,30,30.39,30.33,30.28,10,10,10,6,1,,0.00,0,,201